Time;durP1;ratioP1;P1;durP2;ratioP2;P2;SDS_P1;SDS_P2;PMS_P1;PMS_P2;Temp;Humidity;BMP_temperature;BMP_pressure;BME280_temperature;BME280_humidity;BME280_pressure;Samples;Min_cycle;Max_cycle;Signal;HPM_P1;HPM_P2
2021/06/08 00:00:38;;;;;;;57.50;2.67;;;17.00;99.90;;;;;;5012375;28;20488;-67
2021/06/08 00:03:04;;;;;;;58.10;3.97;;;17.00;99.90;;;;;;5012582;28;20489;-67
2021/06/08 00:05:31;;;;;;;57.17;2.40;;;17.00;99.90;;;;;;5012734;28;21009;-67
2021/06/08 00:07:58;;;;;;;57.70;2.90;;;17.00;99.90;;;;;;5012379;28;20504;-67
2021/06/08 00:10:25;;;;;;;59.07;3.80;;;17.00;99.90;;;;;;5012124;28;20468;-66
2021/06/08 00:12:52;;;;;;;57.77;3.20;;;17.00;99.90;;;;;;4997002;28;20553;-67
2021/06/08 00:15:18;;;;;;;57.87;3.47;;;17.00;99.90;;;;;;5009390;28;21007;-67
2021/06/08 00:17:45;;;;;;;57.43;3.03;;;17.00;99.90;;;;;;5012267;28;20919;-67
2021/06/08 00:20:13;;;;;;;57.90;3.13;;;17.00;99.90;;;;;;5012326;28;20557;-67
2021/06/08 00:22:39;;;;;;;59.07;4.57;;;17.00;99.90;;;;;;5012371;28;20826;-67
2021/06/08 00:25:07;;;;;;;57.50;3.10;;;17.00;99.90;;;;;;5012326;28;20544;-67
2021/06/08 00:27:35;;;;;;;58.93;3.27;;;17.00;99.90;;;;;;5011873;28;20469;-67
2021/06/08 00:30:02;;;;;;;57.43;2.50;;;17.00;99.90;;;;;;5012141;28;20547;-67
2021/06/08 00:32:28;;;;;;;57.33;2.80;;;17.00;99.90;;;;;;5012059;28;20547;-67
2021/06/08 00:34:54;;;;;;;57.90;3.07;;;17.00;99.90;;;;;;5012256;28;20544;-67
2021/06/08 00:37:21;;;;;;;57.80;3.40;;;17.00;99.90;;;;;;5011772;28;21028;-67
2021/06/08 00:39:47;;;;;;;57.40;2.40;;;17.00;99.90;;;;;;5012094;28;21040;-67
2021/06/08 00:42:13;;;;;;;57.57;2.70;;;17.00;99.90;;;;;;5011842;28;20575;-67
2021/06/08 00:44:41;;;;;;;57.57;3.00;;;17.00;99.90;;;;;;5009302;28;20481;-67
2021/06/08 00:47:07;;;;;;;58.17;3.17;;;17.00;99.90;;;;;;4992098;28;20533;-66
2021/06/08 00:49:34;;;;;;;58.50;3.73;;;16.90;99.90;;;;;;4992720;28;20543;-67
2021/06/08 00:52:00;;;;;;;57.27;2.60;;;17.00;99.90;;;;;;4992274;28;20536;-67
2021/06/08 00:54:26;;;;;;;57.80;2.97;;;16.90;99.90;;;;;;4992797;28;20557;-67
2021/06/08 00:56:53;;;;;;;60.13;3.23;;;16.90;99.90;;;;;;4991903;28;20510;-67
2021/06/08 00:59:20;;;;;;;59.27;3.30;;;16.90;99.90;;;;;;4992216;28;20912;-67
2021/06/08 01:01:47;;;;;;;57.73;3.13;;;16.90;99.90;;;;;;4992207;28;20487;-67
2021/06/08 01:04:14;;;;;;;57.90;2.63;;;16.90;99.90;;;;;;4992720;28;20458;-67
2021/06/08 01:06:40;;;;;;;57.27;2.50;;;16.90;99.90;;;;;;4992126;28;20481;-67
2021/06/08 01:09:08;;;;;;;59.50;4.17;;;16.90;99.90;;;;;;4992034;28;20712;-67
2021/06/08 01:11:35;;;;;;;57.40;2.50;;;16.90;99.90;;;;;;4992209;28;20450;-66
2021/06/08 01:14:03;;;;;;;57.70;3.40;;;16.90;99.90;;;;;;4996134;28;20495;-67
2021/06/08 01:16:30;;;;;;;57.90;3.20;;;16.90;99.90;;;;;;5011488;28;20556;-66
2021/06/08 01:18:57;;;;;;;57.57;2.90;;;16.90;99.90;;;;;;5011746;28;20887;-66
2021/06/08 01:21:27;;;;;;;57.07;2.40;;;16.80;99.90;;;;;;5011863;28;20483;-67
2021/06/08 01:23:54;;;;;;;57.90;3.53;;;16.90;99.90;;;;;;5014850;28;20939;-66
2021/06/08 01:26:23;;;;;;;57.60;3.10;;;16.80;99.90;;;;;;5015537;28;20467;-66
2021/06/08 01:28:50;;;;;;;59.53;3.90;;;16.80;99.90;;;;;;5015455;28;20511;-66
2021/06/08 01:31:21;;;;;;;57.77;3.20;;;16.90;99.90;;;;;;5015519;28;20480;-67
2021/06/08 01:33:48;;;;;;;58.73;3.97;;;16.80;99.90;;;;;;5015210;28;20535;-66
2021/06/08 01:36:17;;;;;;;58.20;3.70;;;16.80;99.90;;;;;;5015232;28;20540;-66
2021/06/08 01:38:46;;;;;;;57.57;2.90;;;16.80;99.90;;;;;;5014821;28;20472;-66
2021/06/08 01:41:14;;;;;;;57.57;2.80;;;16.80;99.90;;;;;;5015325;28;20492;-66
2021/06/08 01:43:40;;;;;;;57.90;3.47;;;16.80;99.90;;;;;;5015183;28;20875;-66
2021/06/08 01:46:08;;;;;;;57.40;2.70;;;16.80;99.90;;;;;;5013545;28;20451;-66
2021/06/08 01:48:35;;;;;;;57.40;2.90;;;16.80;99.90;;;;;;4999139;28;20953;-66
2021/06/08 01:51:09;;;;;;;58.10;3.63;;;16.80;99.90;;;;;;4995330;28;20532;-67
2021/06/08 01:53:40;;;;;;;58.30;3.63;;;16.80;99.90;;;;;;4995492;28;20536;-66
2021/06/08 01:56:11;;;;;;;57.20;2.60;;;16.80;99.90;;;;;;4995667;28;20454;-66
2021/06/08 01:58:43;;;;;;;57.77;3.17;;;16.70;99.90;;;;;;4995341;28;20473;-66
2021/06/08 02:01:15;;;;;;;57.17;2.53;;;16.70;99.90;;;;;;4995311;28;20876;-67
2021/06/08 02:03:48;;;;;;;57.57;2.70;;;16.70;99.90;;;;;;4995160;28;20493;-66
2021/06/08 02:06:22;;;;;;;57.47;2.33;;;16.80;99.90;;;;;;4995178;28;20457;-66
2021/06/08 02:08:53;;;;;;;58.10;4.30;;;16.70;99.90;;;;;;4995099;28;20560;-66
2021/06/08 02:11:29;;;;;;;57.60;2.87;;;16.70;99.90;;;;;;4995248;28;20456;-66
2021/06/08 02:14:02;;;;;;;57.50;2.80;;;16.70;99.90;;;;;;4994838;28;20524;-66
2021/06/08 02:16:33;;;;;;;57.67;3.70;;;16.70;99.90;;;;;;5000025;28;20453;-66
2021/06/08 02:19:00;;;;;;;57.60;3.03;;;16.70;99.90;;;;;;5014440;28;20564;-66
2021/06/08 02:21:30;;;;;;;57.50;3.00;;;16.70;99.90;;;;;;5014424;28;20520;-66
2021/06/08 02:23:57;;;;;;;57.90;3.07;;;16.70;99.90;;;;;;5014365;28;20448;-66
2021/06/08 02:26:26;;;;;;;58.50;4.53;;;16.70;99.90;;;;;;5014060;28;20544;-66
2021/06/08 02:28:54;;;;;;;57.37;2.87;;;16.70;99.90;;;;;;5014510;28;20504;-66
2021/06/08 02:31:23;;;;;;;57.77;3.97;;;16.70;99.90;;;;;;5014722;28;20448;-66
2021/06/08 02:33:51;;;;;;;57.90;2.90;;;16.70;99.90;;;;;;5013873;28;20455;-66
2021/06/08 02:36:18;;;;;;;58.47;3.37;;;16.70;99.90;;;;;;5013987;28;20484;-66
2021/06/08 02:38:46;;;;;;;57.53;3.00;;;16.70;99.90;;;;;;5014056;28;20505;-66
2021/06/08 02:41:13;;;;;;;57.67;3.20;;;16.70;99.90;;;;;;5014042;28;20519;-66
2021/06/08 02:43:41;;;;;;;57.60;3.10;;;16.70;99.90;;;;;;5014325;28;20499;-66
2021/06/08 02:46:09;;;;;;;57.60;3.30;;;16.70;99.90;;;;;;5013808;28;20544;-66
2021/06/08 02:48:37;;;;;;;58.20;2.97;;;16.70;99.90;;;;;;5012364;28;20477;-66
2021/06/08 02:51:05;;;;;;;58.00;3.30;;;16.70;99.90;;;;;;5013818;28;20450;-66
2021/06/08 02:53:31;;;;;;;58.87;3.53;;;16.70;99.90;;;;;;5013735;28;20539;-66
2021/06/08 02:55:58;;;;;;;57.70;3.27;;;16.70;99.90;;;;;;5013915;28;20453;-66
2021/06/08 02:58:26;;;;;;;57.47;3.00;;;16.70;99.90;;;;;;5013447;28;21003;-66
2021/06/08 03:00:54;;;;;;;57.90;3.93;;;16.70;99.90;;;;;;5013824;28;20575;-66
2021/06/08 03:03:26;;;;;;;58.50;3.67;;;16.70;99.90;;;;;;5013703;28;20537;-66
2021/06/08 03:06:00;;;;;;;57.47;3.07;;;16.70;99.90;;;;;;5013703;28;20496;-66
2021/06/08 03:08:33;;;;;;;57.63;3.40;;;16.70;99.90;;;;;;5013645;28;20555;-66
2021/06/08 03:11:03;;;;;;;57.40;3.00;;;16.70;99.90;;;;;;5013514;28;20595;-66
2021/06/08 03:13:32;;;;;;;59.80;4.60;;;16.70;99.90;;;;;;5013457;28;21008;-66
2021/06/08 03:16:02;;;;;;;59.60;4.60;;;16.70;99.90;;;;;;5013608;28;20945;-66
2021/06/08 03:18:30;;;;;;;58.67;3.60;;;16.70;99.90;;;;;;5008553;28;20561;-66
2021/06/08 03:21:00;;;;;;;57.83;3.30;;;16.70;99.90;;;;;;4993774;28;20854;-66
2021/06/08 03:23:34;;;;;;;59.50;3.43;;;16.70;99.90;;;;;;4994224;28;20820;-66
2021/06/08 03:26:03;;;;;;;58.50;2.97;;;16.70;99.90;;;;;;4993568;28;20540;-66
2021/06/08 03:28:31;;;;;;;57.67;3.10;;;16.70;99.90;;;;;;4993403;28;20502;-66
2021/06/08 03:30:59;;;;;;;57.80;3.00;;;16.70;99.90;;;;;;4993555;28;20860;-66
2021/06/08 03:33:26;;;;;;;57.80;3.10;;;16.70;99.90;;;;;;4993693;28;20451;-66
2021/06/08 03:35:55;;;;;;;57.70;3.67;;;16.60;99.90;;;;;;4993472;28;20450;-66
2021/06/08 03:38:23;;;;;;;58.60;3.83;;;16.60;99.90;;;;;;4993046;28;20561;-66
2021/06/08 03:40:51;;;;;;;58.10;2.73;;;16.70;99.90;;;;;;4993291;28;20489;-66
2021/06/08 03:43:18;;;;;;;58.40;3.43;;;16.70;99.90;;;;;;4993418;28;20464;-66
2021/06/08 03:45:47;;;;;;;59.50;4.80;;;16.70;99.90;;;;;;4992418;28;20481;-66
2021/06/08 03:48:16;;;;;;;57.37;2.50;;;16.70;99.90;;;;;;4993174;28;20477;-66
2021/06/08 03:50:43;;;;;;;57.27;2.60;;;16.70;99.90;;;;;;5004688;28;20459;-66
2021/06/08 03:53:10;;;;;;;58.23;4.03;;;16.70;99.90;;;;;;4997384;28;20490;-66
2021/06/08 03:55:37;;;;;;;59.57;3.87;;;16.70;99.90;;;;;;4993055;28;20464;-66
2021/06/08 03:58:10;;;;;;;58.07;2.80;;;16.70;99.90;;;;;;4992719;28;20528;-66
2021/06/08 04:00:37;;;;;;;57.07;2.33;;;16.70;99.90;;;;;;4993055;28;20978;-66
2021/06/08 04:03:04;;;;;;;57.57;3.07;;;16.70;99.90;;;;;;4992979;28;21017;-66
2021/06/08 04:05:32;;;;;;;57.77;3.10;;;16.70;99.90;;;;;;4993000;28;20446;-66
2021/06/08 04:07:59;;;;;;;58.07;3.00;;;16.70;99.90;;;;;;4992744;28;20472;-66
2021/06/08 04:10:26;;;;;;;57.47;2.70;;;16.70;99.90;;;;;;4992913;28;20958;-66
2021/06/08 04:12:58;;;;;;;58.30;3.33;;;16.70;99.90;;;;;;4992761;28;20869;-66
2021/06/08 04:15:25;;;;;;;59.23;4.77;;;16.70;99.90;;;;;;4992732;28;20455;-66
2021/06/08 04:17:52;;;;;;;57.43;2.50;;;16.70;99.90;;;;;;4992630;28;20565;-66
2021/06/08 04:20:19;;;;;;;58.00;3.63;;;16.70;99.90;;;;;;4992744;28;20853;-66
2021/06/08 04:22:47;;;;;;;58.80;3.60;;;16.70;99.90;;;;;;4992566;28;20526;-66
2021/06/08 04:25:16;;;;;;;58.07;3.37;;;16.70;99.90;;;;;;4992600;28;20454;-66
2021/06/08 04:27:42;;;;;;;58.10;3.50;;;16.70;99.90;;;;;;5008741;28;20623;-66
2021/06/08 04:30:10;;;;;;;57.50;2.70;;;16.80;99.90;;;;;;4992725;28;20532;-66
2021/06/08 04:32:37;;;;;;;58.33;2.97;;;16.70;99.90;;;;;;4992628;28;20446;-66
2021/06/08 04:35:06;;;;;;;58.17;3.93;;;16.80;99.90;;;;;;4992605;28;20537;-66
2021/06/08 04:37:33;;;;;;;57.47;2.40;;;16.80;99.90;;;;;;4992100;28;20466;-66
2021/06/08 04:40:00;;;;;;;57.27;3.00;;;16.80;99.90;;;;;;4992409;28;20451;-66
2021/06/08 04:42:27;;;;;;;59.50;3.60;;;16.80;99.90;;;;;;4992561;28;20936;-66
2021/06/08 04:44:54;;;;;;;57.73;3.13;;;16.90;99.90;;;;;;4992547;28;20878;-66
2021/06/08 04:47:22;;;;;;;58.10;3.20;;;16.90;99.90;;;;;;4992457;28;20764;-66
2021/06/08 04:49:48;;;;;;;57.67;2.80;;;16.90;99.90;;;;;;4992355;28;20454;-66
2021/06/08 04:52:15;;;;;;;58.00;3.30;;;16.90;99.90;;;;;;4992294;28;20546;-66
2021/06/08 04:54:42;;;;;;;57.57;2.93;;;16.90;99.90;;;;;;4992411;28;20485;-66
2021/06/08 04:57:12;;;;;;;57.57;2.40;;;16.90;99.90;;;;;;4996078;28;20461;-66
2021/06/08 04:59:43;;;;;;;59.00;4.17;;;16.90;99.90;;;;;;5015808;28;20469;-66
2021/06/08 05:02:14;;;;;;;57.90;3.23;;;16.90;99.90;;;;;;5015900;28;20571;-66
2021/06/08 05:04:42;;;;;;;57.43;2.70;;;17.00;99.90;;;;;;5015562;28;20492;-66
2021/06/08 05:07:10;;;;;;;57.70;3.47;;;17.00;99.90;;;;;;5015892;28;20532;-66
2021/06/08 05:09:41;;;;;;;57.70;3.33;;;17.00;99.90;;;;;;5016143;28;20533;-66
2021/06/08 05:12:12;;;;;;;57.83;3.13;;;17.00;99.90;;;;;;5015923;28;20456;-66
2021/06/08 05:14:44;;;;;;;58.40;3.27;;;17.00;99.90;;;;;;5015770;28;20930;-66
2021/06/08 05:17:11;;;;;;;57.97;2.83;;;17.00;99.90;;;;;;5015171;28;20528;-66
2021/06/08 05:19:38;;;;;;;57.70;3.17;;;17.00;99.90;;;;;;5015446;28;20958;-67
2021/06/08 05:22:05;;;;;;;57.70;2.80;;;17.00;99.90;;;;;;5015640;28;20550;-66
2021/06/08 05:24:32;;;;;;;58.17;3.03;;;17.10;99.90;;;;;;5015721;28;20886;-66
2021/06/08 05:26:58;;;;;;;59.27;3.43;;;17.10;99.90;;;;;;5015384;28;21015;-66
2021/06/08 05:29:26;;;;;;;58.40;3.20;;;17.20;99.90;;;;;;5014026;28;20973;-66
2021/06/08 05:31:56;;;;;;;58.47;3.27;;;17.20;99.90;;;;;;5015037;28;20942;-66
2021/06/08 05:34:25;;;;;;;58.50;3.27;;;17.30;99.90;;;;;;5015372;28;20489;-66
2021/06/08 05:36:51;;;;;;;60.00;3.83;;;17.30;99.90;;;;;;5015355;28;20536;-66
2021/06/08 05:39:18;;;;;;;59.77;3.70;;;17.40;99.90;;;;;;5015261;28;20930;-66
2021/06/08 05:41:45;;;;;;;59.70;4.10;;;17.40;99.90;;;;;;5015627;28;20486;-66
2021/06/08 05:44:12;;;;;;;57.90;3.17;;;17.40;99.90;;;;;;5015219;28;20958;-66
2021/06/08 05:46:39;;;;;;;59.27;3.47;;;17.40;99.90;;;;;;5014827;28;20481;-66
2021/06/08 05:49:07;;;;;;;60.10;4.23;;;17.40;99.90;;;;;;5015168;28;20477;-66
2021/06/08 05:51:34;;;;;;;58.20;3.83;;;17.40;99.90;;;;;;5015047;28;20503;-66
2021/06/08 05:54:01;;;;;;;60.40;3.43;;;17.40;99.90;;;;;;5015039;28;20452;-66
2021/06/08 05:56:32;;;;;;;57.77;2.93;;;17.40;99.90;;;;;;5014563;28;20454;-66
2021/06/08 05:58:58;;;;;;;58.10;3.27;;;17.40;99.90;;;;;;5013161;28;20513;-66
2021/06/08 06:01:26;;;;;;;57.80;3.10;;;17.40;99.90;;;;;;5014539;28;20482;-66
2021/06/08 06:03:54;;;;;;;58.17;3.30;;;17.50;99.90;;;;;;5015034;28;20462;-65
2021/06/08 06:06:21;;;;;;;57.90;2.80;;;17.50;99.90;;;;;;5014746;28;20453;-65
2021/06/08 06:08:48;;;;;;;57.80;2.90;;;17.50;99.90;;;;;;5013798;28;20465;-65
2021/06/08 06:11:16;;;;;;;57.77;2.93;;;17.60;99.90;;;;;;5014766;28;20958;-65
2021/06/08 06:13:47;;;;;;;57.67;3.03;;;17.60;99.90;;;;;;5014916;28;20464;-68
2021/06/08 06:16:17;;;;;;;58.07;3.50;;;17.60;99.90;;;;;;5014861;28;20540;-68
2021/06/08 06:18:44;;;;;;;57.57;2.70;;;17.60;99.90;;;;;;5014537;28;20557;-68
2021/06/08 06:21:12;;;;;;;59.27;3.37;;;17.50;99.90;;;;;;5014727;28;20922;-68
2021/06/08 06:23:39;;;;;;;58.07;3.40;;;17.50;99.90;;;;;;5014722;28;21016;-68
2021/06/08 06:26:06;;;;;;;57.70;2.80;;;17.50;99.90;;;;;;5014726;28;20452;-65
2021/06/08 06:28:33;;;;;;;57.63;3.07;;;17.50;99.90;;;;;;5014941;28;20478;-65
2021/06/08 06:30:59;;;;;;;57.77;3.07;;;17.50;99.90;;;;;;5003462;28;20867;-65
2021/06/08 06:33:26;;;;;;;58.37;3.53;;;17.60;99.90;;;;;;5007354;28;20579;-65
2021/06/08 06:35:57;;;;;;;57.70;2.70;;;17.60;99.90;;;;;;5014298;28;20845;-65
2021/06/08 06:38:26;;;;;;;57.93;4.10;;;17.60;99.90;;;;;;5013845;28;20496;-65
2021/06/08 06:40:53;;;;;;;58.40;3.50;;;17.70;99.90;;;;;;5014070;28;20453;-65
2021/06/08 06:43:25;;;;;;;58.13;3.17;;;17.80;99.90;;;;;;5014302;28;20894;-65
2021/06/08 06:45:52;;;;;;;58.93;3.37;;;17.90;99.90;;;;;;5014221;28;20454;-67
2021/06/08 06:48:19;;;;;;;59.47;3.77;;;17.90;99.90;;;;;;5013674;28;20839;-66
2021/06/08 06:50:46;;;;;;;58.20;2.93;;;17.90;99.90;;;;;;5013917;28;20477;-66
2021/06/08 06:53:16;;;;;;;57.97;3.53;;;17.90;99.90;;;;;;5013775;28;20446;-66
2021/06/08 06:55:47;;;;;;;58.20;3.53;;;17.90;99.90;;;;;;5014338;28;20453;-66
2021/06/08 06:58:16;;;;;;;57.67;2.90;;;18.00;99.90;;;;;;5013569;28;20565;-66
2021/06/08 07:00:42;;;;;;;58.50;3.87;;;18.00;99.90;;;;;;5013779;28;20460;-66
2021/06/08 07:03:09;;;;;;;59.83;5.07;;;18.10;99.90;;;;;;5012471;28;20525;-66
2021/06/08 07:05:37;;;;;;;59.13;3.93;;;18.10;99.90;;;;;;5013556;28;20520;-66
2021/06/08 07:08:06;;;;;;;59.23;3.17;;;18.10;99.90;;;;;;5013635;28;20549;-66
2021/06/08 07:10:33;;;;;;;58.47;2.80;;;18.10;99.90;;;;;;5013939;28;20844;-66
2021/06/08 07:13:05;;;;;;;58.77;4.77;;;18.10;99.90;;;;;;5013621;28;20537;-66
2021/06/08 07:15:32;;;;;;;57.60;2.30;;;18.20;99.90;;;;;;5013490;28;20946;-66
2021/06/08 07:17:59;;;;;;;58.40;3.70;;;18.20;99.90;;;;;;5012856;28;20477;-66
2021/06/08 07:20:28;;;;;;;58.10;2.80;;;18.30;99.90;;;;;;5013313;28;20857;-66
2021/06/08 07:22:54;;;;;;;57.80;3.00;;;18.30;99.90;;;;;;5013199;28;20488;-66
2021/06/08 07:25:21;;;;;;;58.67;3.50;;;18.30;99.90;;;;;;5013453;28;20609;-66
2021/06/08 07:27:49;;;;;;;57.70;2.83;;;18.40;99.90;;;;;;5013046;28;20470;-66
2021/06/08 07:30:18;;;;;;;57.50;3.17;;;18.40;99.90;;;;;;5013296;28;20458;-66
2021/06/08 07:32:54;;;;;;;58.40;3.80;;;18.40;99.90;;;;;;5011446;28;20825;-66
2021/06/08 07:35:28;;;;;;;58.20;2.80;;;18.40;99.90;;;;;;5013201;28;20446;-66
2021/06/08 07:37:57;;;;;;;57.70;2.70;;;18.30;99.90;;;;;;5012813;28;20556;-66
2021/06/08 07:40:28;;;;;;;58.40;3.43;;;18.30;99.90;;;;;;5013044;28;20448;-66
2021/06/08 07:42:58;;;;;;;58.77;3.33;;;18.30;99.90;;;;;;5013036;28;20933;-66
2021/06/08 07:45:33;;;;;;;58.60;3.33;;;18.30;99.90;;;;;;5012841;28;20457;-66
2021/06/08 07:48:02;;;;;;;57.60;2.53;;;18.30;99.90;;;;;;5012806;28;20842;-66
2021/06/08 07:50:32;;;;;;;58.97;3.00;;;18.40;99.90;;;;;;5012974;28;20544;-66
2021/06/08 07:53:01;;;;;;;57.73;2.90;;;18.40;99.90;;;;;;5012897;28;20530;-66
2021/06/08 07:55:28;;;;;;;57.77;2.83;;;18.40;99.90;;;;;;5012462;28;20800;-66
2021/06/08 07:57:54;;;;;;;57.87;3.50;;;18.40;99.90;;;;;;5012532;28;20549;-66
2021/06/08 08:00:21;;;;;;;58.10;4.07;;;18.60;99.90;;;;;;5012518;28;20550;-66
2021/06/08 08:02:52;;;;;;;58.50;3.20;;;18.70;99.90;;;;;;5012982;28;20904;-66
2021/06/08 08:05:21;;;;;;;58.20;3.17;;;18.70;99.90;;;;;;5010997;28;20885;-66
2021/06/08 08:07:49;;;;;;;59.60;3.70;;;18.80;99.90;;;;;;4995788;28;20474;-67
2021/06/08 08:10:16;;;;;;;58.27;3.43;;;18.90;99.90;;;;;;5012305;28;20527;-67
2021/06/08 08:12:45;;;;;;;58.20;3.53;;;19.00;99.90;;;;;;5012601;28;20891;-68
2021/06/08 08:15:12;;;;;;;57.87;3.23;;;19.00;99.90;;;;;;5012135;28;20545;-66
2021/06/08 08:17:39;;;;;;;58.50;3.33;;;19.10;99.90;;;;;;5012306;28;20467;-67
2021/06/08 08:20:09;;;;;;;58.10;3.47;;;19.20;99.90;;;;;;5012162;28;20449;-67
2021/06/08 08:22:36;;;;;;;58.50;3.23;;;19.30;99.90;;;;;;5012535;28;21004;-67
2021/06/08 08:25:03;;;;;;;58.33;3.63;;;19.40;99.10;;;;;;5012253;28;20452;-67
2021/06/08 08:27:29;;;;;;;58.77;4.13;;;19.60;98.00;;;;;;5012091;28;20551;-68
2021/06/08 08:29:55;;;;;;;58.77;3.53;;;19.70;98.80;;;;;;5012597;28;20484;-67
2021/06/08 08:32:22;;;;;;;59.90;4.30;;;19.90;99.30;;;;;;5011699;28;21008;-67
2021/06/08 08:34:49;;;;;;;58.77;3.43;;;19.90;97.80;;;;;;5012179;28;20452;-67
2021/06/08 08:37:16;;;;;;;58.40;3.10;;;19.90;95.70;;;;;;5011730;28;20538;-67
2021/06/08 08:39:43;;;;;;;60.10;4.23;;;19.90;97.40;;;;;;5011768;28;20484;-67
2021/06/08 08:42:09;;;;;;;58.60;3.70;;;20.00;97.60;;;;;;5011956;28;20487;-67
2021/06/08 08:44:37;;;;;;;58.43;2.93;;;20.10;97.80;;;;;;5012141;28;20485;-66
2021/06/08 08:47:03;;;;;;;58.40;3.40;;;20.40;95.00;;;;;;5011828;28;20456;-66
2021/06/08 08:49:30;;;;;;;58.73;3.70;;;20.60;84.60;;;;;;5011633;28;20477;-66
2021/06/08 08:51:57;;;;;;;61.57;5.30;;;20.80;77.70;;;;;;5011864;28;20529;-67
2021/06/08 08:54:25;;;;;;;59.17;4.00;;;21.10;84.90;;;;;;5011876;28;20536;-66
2021/06/08 08:56:51;;;;;;;59.17;3.90;;;21.30;1.00;;;;;;5011837;28;20537;-67
2021/06/08 08:59:19;;;;;;;59.47;3.80;;;21.30;1.00;;;;;;5011431;28;20484;-67
2021/06/08 09:01:49;;;;;;;59.97;4.40;;;21.20;1.00;;;;;;5011743;28;20490;-67
2021/06/08 09:04:17;;;;;;;61.70;4.83;;;21.10;1.00;;;;;;5011820;28;20456;-67
2021/06/08 09:06:44;;;;;;;60.67;6.13;;;21.00;3.80;;;;;;5011813;28;20453;-67
2021/06/08 09:09:11;;;;;;;59.07;3.93;;;21.00;16.40;;;;;;5011677;28;20557;-66
2021/06/08 09:11:40;;;;;;;59.57;4.50;;;21.00;28.90;;;;;;5012000;28;20446;-67
2021/06/08 09:14:08;;;;;;;59.90;3.90;;;21.00;38.50;;;;;;5011809;28;20458;-67
2021/06/08 09:16:35;;;;;;;59.53;4.40;;;21.00;26.00;;;;;;5011468;28;20544;-67
2021/06/08 09:19:03;;;;;;;58.93;4.00;;;21.10;1.60;;;;;;5011281;28;20505;-67
2021/06/08 09:21:32;;;;;;;59.30;4.40;;;21.20;4.00;;;;;;5011669;28;20477;-67
2021/06/08 09:24:15;;;;;;;58.27;3.83;;;21.20;1.00;;;;;;5011580;28;20881;-67
2021/06/08 09:26:51;;;;;;;60.10;3.80;;;21.20;1.00;;;;;;5011507;28;20543;-67
2021/06/08 09:29:31;;;;;;;58.70;3.37;;;21.20;1.00;;;;;;5011532;28;20508;-66
2021/06/08 09:32:21;;;;;;;58.37;4.60;;;21.10;1.00;;;;;;5011845;28;20525;-67
2021/06/08 09:34:49;;;;;;;58.80;3.40;;;21.00;1.00;;;;;;5011669;28;20512;-66
2021/06/08 09:37:28;;;;;;;58.87;3.30;;;20.90;1.00;;;;;;5011309;28;20905;-66
2021/06/08 09:39:54;;;;;;;60.07;4.13;;;20.80;1.00;;;;;;5011130;28;21081;-66
2021/06/08 09:42:24;;;;;;;60.20;5.00;;;20.70;1.00;;;;;;5011587;28;20492;-66
2021/06/08 09:44:51;;;;;;;61.17;4.83;;;20.70;1.00;;;;;;5014844;28;20495;-67
2021/06/08 09:47:28;;;;;;;59.17;4.17;;;20.70;1.00;;;;;;5014822;28;20456;-67
2021/06/08 09:49:55;;;;;;;59.77;4.03;;;20.70;1.00;;;;;;5015064;28;20537;-67
2021/06/08 09:52:22;;;;;;;61.90;5.93;;;20.80;1.00;;;;;;5014929;28;20533;-67
2021/06/08 09:54:51;;;;;;;59.80;4.30;;;20.80;1.00;;;;;;5026791;28;20445;-67
2021/06/08 09:57:23;;;;;;;60.37;4.20;;;20.90;1.00;;;;;;5034728;28;20464;-67
2021/06/08 09:59:55;;;;;;;59.80;4.10;;;21.20;1.00;;;;;;5034565;28;20968;-67
2021/06/08 10:02:40;;;;;;;59.60;4.57;;;21.40;1.00;;;;;;5034753;28;20484;-67
2021/06/08 10:05:25;;;;;;;59.67;4.20;;;21.90;1.00;;;;;;5035164;28;20440;-67
2021/06/08 10:07:53;;;;;;;59.27;3.97;;;22.30;1.00;;;;;;5034201;28;20465;-67
2021/06/08 10:10:24;;;;;;;60.13;5.27;;;22.70;1.00;;;;;;5034597;28;20440;-67
2021/06/08 10:12:59;;;;;;;60.70;5.30;;;23.20;1.00;;;;;;5034663;28;20536;-67
2021/06/08 10:15:29;;;;;;;58.60;4.30;;;23.60;1.00;;;;;;5032028;28;20513;-67
2021/06/08 10:18:05;;;;;;;60.27;4.40;;;23.90;1.00;;;;;;5014616;28;20503;-67
2021/06/08 10:20:33;;;;;;;60.03;4.30;;;24.20;1.00;;;;;;5014555;28;20521;-67
2021/06/08 10:23:03;;;;;;;59.63;4.13;;;24.30;1.00;;;;;;5014612;28;20523;-67
2021/06/08 10:25:30;;;;;;;59.30;3.90;;;24.50;1.00;;;;;;5014504;28;20452;-66
2021/06/08 10:27:58;;;;;;;60.50;3.63;;;24.70;1.00;;;;;;5014398;28;20480;-66
2021/06/08 10:30:25;;;;;;;58.93;3.83;;;25.00;1.00;;;;;;5014664;28;20537;-66
2021/06/08 10:32:53;;;;;;;62.50;5.57;;;25.80;1.00;;;;;;5014691;28;20446;-67
2021/06/08 10:35:19;;;;;;;59.03;4.80;;;26.80;1.00;;;;;;5014754;28;20540;-67
2021/06/08 10:37:46;;;;;;;58.17;3.30;;;27.20;1.00;;;;;;5014231;28;20474;-67
2021/06/08 10:40:13;;;;;;;59.90;5.13;;;27.10;1.00;;;;;;5013987;28;20545;-68
2021/06/08 10:42:39;;;;;;;60.20;4.90;;;26.70;1.00;;;;;;5014432;28;20972;-67
2021/06/08 10:45:09;;;;;;;59.80;4.80;;;26.40;1.00;;;;;;5014484;28;20537;-67
2021/06/08 10:47:42;;;;;;;58.40;3.37;;;26.10;1.00;;;;;;5014059;28;20506;-68
2021/06/08 10:50:29;;;;;;;59.33;4.80;;;25.80;1.00;;;;;;5014220;28;20454;-67
2021/06/08 10:52:58;;;;;;;59.40;4.30;;;25.30;1.00;;;;;;5014523;28;20448;-67
2021/06/08 10:55:26;;;;;;;59.20;3.70;;;25.00;1.00;;;;;;5013714;28;20456;-67
2021/06/08 10:57:52;;;;;;;60.60;5.57;;;25.10;1.00;;;;;;5013510;28;20535;-67
2021/06/08 11:00:41;;;;;;;59.37;3.80;;;25.10;1.00;;;;;;5012409;28;20472;-67
2021/06/08 11:03:10;;;;;;;59.23;4.20;;;25.30;1.00;;;;;;5013510;28;20579;-67
2021/06/08 11:05:49;;;;;;;58.50;3.43;;;25.40;1.00;;;;;;5013967;28;20459;-67
2021/06/08 11:08:17;;;;;;;59.80;4.30;;;25.60;1.00;;;;;;5013463;28;20472;-67
2021/06/08 11:11:02;;;;;;;61.27;4.60;;;25.60;1.00;;;;;;5013668;28;20535;-66
2021/06/08 11:13:42;;;;;;;60.37;4.20;;;25.50;1.00;;;;;;5013498;28;20453;-67
2021/06/08 11:16:41;;;;;;;58.87;4.40;;;25.30;1.00;;;;;;5013265;28;20441;-66
2021/06/08 11:19:07;;;;;;;60.00;4.60;;;25.30;1.00;;;;;;5013517;28;20478;-67
2021/06/08 11:21:36;;;;;;;59.03;3.33;;;25.30;1.00;;;;;;5013345;28;20588;-66
2021/06/08 11:24:03;;;;;;;59.47;5.33;;;25.40;1.00;;;;;;5013166;28;20972;-67
2021/06/08 11:26:51;;;;;;;59.63;4.53;;;25.60;1.00;;;;;;5013513;28;20457;-67
2021/06/08 11:29:49;;;;;;;58.67;3.70;;;25.90;1.00;;;;;;5013662;28;20504;-67
2021/06/08 11:32:48;;;;;;;58.80;3.70;;;26.20;1.00;;;;;;5011681;28;20457;-68
2021/06/08 11:35:20;;;;;;;60.40;4.30;;;26.20;1.00;;;;;;4999300;28;20455;-67
2021/06/08 11:37:53;;;;;;;59.03;3.93;;;26.20;1.00;;;;;;4993301;28;20517;-68
2021/06/08 11:40:56;;;;;;;59.33;3.50;;;26.00;1.00;;;;;;4993305;28;20907;-68
2021/06/08 11:43:52;;;;;;;58.87;3.33;;;25.60;1.00;;;;;;4993491;28;20488;-68
2021/06/08 11:46:28;;;;;;;59.80;4.37;;;25.30;1.00;;;;;;4993089;28;21059;-68
2021/06/08 11:49:11;;;;;;;60.17;4.50;;;25.00;1.00;;;;;;4993055;28;20479;-68
2021/06/08 11:51:42;;;;;;;58.90;3.93;;;24.80;1.00;;;;;;4993510;28;20822;-67
2021/06/08 11:54:13;;;;;;;58.37;3.10;;;24.80;1.00;;;;;;4993408;28;20447;-67
2021/06/08 11:56:51;;;;;;;60.10;3.67;;;24.90;1.00;;;;;;4993064;28;20543;-68
2021/06/08 11:59:19;;;;;;;61.90;6.33;;;25.30;1.00;;;;;;4992911;28;20569;-67
2021/06/08 12:01:48;;;;;;;58.87;4.07;;;25.60;1.00;;;;;;4992773;28;21068;-67
2021/06/08 12:04:16;;;;;;;58.30;3.63;;;25.90;1.00;;;;;;5005679;28;20453;-65
2021/06/08 12:07:05;;;;;;;59.43;4.10;;;26.20;1.00;;;;;;5011706;28;20495;-65
2021/06/08 12:09:36;;;;;;;59.73;4.67;;;26.60;1.00;;;;;;5012438;28;20468;-65
2021/06/08 12:12:10;;;;;;;60.47;3.87;;;26.60;1.00;;;;;;5012700;28;20482;-65
2021/06/08 12:14:45;;;;;;;58.33;2.90;;;26.60;1.00;;;;;;5012688;28;20454;-68
2021/06/08 12:17:11;;;;;;;59.57;3.90;;;26.70;1.00;;;;;;5012188;28;20453;-68
2021/06/08 12:19:38;;;;;;;58.60;3.30;;;27.40;1.00;;;;;;5012746;28;20453;-68
2021/06/08 12:22:20;;;;;;;58.20;2.90;;;28.90;1.00;;;;;;5012203;28;20483;-68
2021/06/08 12:25:00;;;;;;;59.30;4.43;;;30.40;1.00;;;;;;5012292;28;21016;-68
2021/06/08 12:27:34;;;;;;;60.07;4.93;;;31.40;1.00;;;;;;5012084;28;20529;-68
2021/06/08 12:30:01;;;;;;;59.90;4.30;;;31.70;1.00;;;;;;5012165;28;21013;-68
2021/06/08 12:32:27;;;;;;;58.80;3.50;;;31.40;1.00;;;;;;5016275;28;20451;-68
2021/06/08 12:34:54;;;;;;;58.53;3.50;;;31.00;1.00;;;;;;5031710;28;20481;-67
2021/06/08 12:37:25;;;;;;;58.20;3.07;;;30.90;1.00;;;;;;5031713;28;20493;-65
2021/06/08 12:39:53;;;;;;;58.70;3.40;;;31.20;1.00;;;;;;5031793;28;20553;-66
2021/06/08 12:42:21;;;;;;;58.57;3.10;;;32.00;1.00;;;;;;5031744;28;20476;-66
2021/06/08 12:44:48;;;;;;;58.50;4.00;;;32.80;1.00;;;;;;5023780;28;20843;-67
2021/06/08 12:47:15;;;;;;;59.63;4.10;;;33.20;1.00;;;;;;5002032;28;20487;-67
2021/06/08 12:49:42;;;;;;;58.90;3.90;;;33.50;1.00;;;;;;4992235;28;20566;-67
2021/06/08 12:52:13;;;;;;;59.77;3.40;;;33.00;1.00;;;;;;4992498;28;20447;-67